Time;durP1;ratioP1;P1;durP2;ratioP2;P2;SDS_P1;SDS_P2;PMS_P1;PMS_P2;Temp;Humidity;BMP_temperature;BMP_pressure;BME280_temperature;BME280_humidity;BME280_pressure;Samples;Min_cycle;Max_cycle;Signal;HPM_P1;HPM_P2
2022/09/20 00:01:31;;;;;;;7.57;2.33;;;15.20;58.70;;;;;;5095202;28;20243;-92
2022/09/20 00:04:10;;;;;;;11.07;3.10;;;15.20;58.90;;;;;;5095402;28;20232;-92
2022/09/20 00:06:42;;;;;;;10.07;3.10;;;15.10;59.10;;;;;;5096910;28;20580;-93
2022/09/20 00:09:11;;;;;;;5.40;2.20;;;15.10;59.20;;;;;;5080175;28;20203;-92
2022/09/20 00:11:44;;;;;;;11.33;3.40;;;15.10;59.10;;;;;;5076343;28;20251;-92
2022/09/20 00:14:12;;;;;;;9.53;2.77;;;15.00;59.10;;;;;;5076969;28;20249;-93
2022/09/20 00:16:53;;;;;;;10.50;3.10;;;15.00;59.10;;;;;;5091021;28;20968;-93
2022/09/20 00:19:23;;;;;;;8.63;2.50;;;15.00;59.30;;;;;;5096960;28;20924;-94
2022/09/20 00:24:44;;;;;;;13.70;3.30;;;15.00;59.20;;;;;;5069071;28;20207;-93
2022/09/20 00:27:12;;;;;;;6.23;1.80;;;14.90;59.10;;;;;;5077577;28;20197;-93
2022/09/20 00:29:40;;;;;;;5.20;1.70;;;14.90;59.20;;;;;;5079666;28;20215;-93
2022/09/20 00:32:08;;;;;;;7.60;2.50;;;14.90;59.30;;;;;;5079997;28;20214;-94
2022/09/20 00:37:20;;;;;;;10.27;2.83;;;14.80;59.40;;;;;;5090881;28;20280;-93
2022/09/20 00:39:49;;;;;;;9.27;3.27;;;14.80;59.50;;;;;;5085561;28;20203;-93
2022/09/20 00:42:18;;;;;;;10.93;3.10;;;14.80;59.60;;;;;;5096774;28;20314;-92
2022/09/20 00:44:56;;;;;;;8.83;2.77;;;14.80;59.70;;;;;;5082610;28;20210;-93
2022/09/20 00:47:34;;;;;;;18.67;4.73;;;14.70;60.00;;;;;;5095761;28;20183;-91
2022/09/20 00:50:23;;;;;;;8.90;3.17;;;14.70;60.00;;;;;;5095963;28;20209;-92
2022/09/20 00:52:55;;;;;;;6.20;2.40;;;14.70;60.00;;;;;;5084658;28;20206;-92
2022/09/20 00:55:27;;;;;;;9.87;2.47;;;14.60;59.70;;;;;;5084064;28;20204;-92
2022/09/20 00:57:56;;;;;;;14.23;3.77;;;14.60;59.90;;;;;;5099795;28;20196;-93
2022/09/20 01:00:27;;;;;;;7.70;2.73;;;14.60;59.90;;;;;;5108652;28;21290;-93
2022/09/20 01:02:59;;;;;;;14.07;3.77;;;14.50;59.90;;;;;;5103605;28;20193;-91
2022/09/20 01:05:27;;;;;;;6.57;2.53;;;14.50;59.90;;;;;;5106564;28;20650;-93
2022/09/20 01:08:01;;;;;;;3.77;1.73;;;14.50;59.90;;;;;;5102059;28;20210;-92
2022/09/20 01:10:42;;;;;;;7.43;2.23;;;14.40;59.90;;;;;;5096437;28;20225;-92
2022/09/20 01:13:12;;;;;;;6.17;2.13;;;14.40;60.50;;;;;;5100058;28;20317;-92
2022/09/20 01:15:40;;;;;;;10.20;2.97;;;14.40;61.10;;;;;;5096335;28;20201;-92
2022/09/20 01:18:10;;;;;;;8.53;2.70;;;14.40;60.20;;;;;;5095094;28;20184;-93
2022/09/20 01:20:41;;;;;;;7.13;2.43;;;14.40;60.10;;;;;;5096946;28;20201;-93
2022/09/20 01:23:39;;;;;;;3.73;1.80;;;14.30;60.00;;;;;;5104959;28;20203;-92
2022/09/20 01:26:52;;;;;;;7.40;2.17;;;14.30;60.70;;;;;;5102375;28;20198;-93
2022/09/20 01:29:39;;;;;;;6.87;2.23;;;14.30;60.60;;;;;;5104106;22;20247;-93
2022/09/20 01:32:17;;;;;;;3.90;1.53;;;14.30;60.80;;;;;;5067279;28;20194;-92
2022/09/20 01:34:51;;;;;;;9.43;3.40;;;14.20;60.50;;;;;;5054903;28;20213;-93
2022/09/20 01:37:27;;;;;;;8.00;2.73;;;14.20;60.40;;;;;;5059151;28;20223;-90
2022/09/20 01:40:09;;;;;;;9.93;3.30;;;14.20;60.60;;;;;;5060806;28;20178;-93
2022/09/20 01:42:52;;;;;;;5.73;2.13;;;14.20;61.20;;;;;;5059106;28;20196;-92
2022/09/20 01:45:31;;;;;;;5.03;1.73;;;14.20;61.20;;;;;;5056014;28;20664;-92
2022/09/20 01:48:13;;;;;;;6.50;2.67;;;14.10;61.10;;;;;;5056275;28;20195;-93
2022/09/20 01:50:55;;;;;;;8.73;2.77;;;14.10;61.30;;;;;;5056029;28;20202;-92
2022/09/20 01:53:51;;;;;;;8.30;2.40;;;14.10;61.40;;;;;;5050078;28;20233;-93
2022/09/20 01:56:58;;;;;;;7.57;2.23;;;14.10;62.20;;;;;;5035558;28;20656;-92
2022/09/20 01:59:46;;;;;;;5.17;1.87;;;14.10;62.20;;;;;;5017169;28;20230;-92
2022/09/20 02:02:55;;;;;;;5.70;2.37;;;14.10;61.60;;;;;;5034604;28;20203;-92
2022/09/20 02:05:57;;;;;;;9.93;2.53;;;14.10;62.00;;;;;;5047100;28;20218;-92
2022/09/20 02:09:04;;;;;;;6.70;2.70;;;14.10;61.80;;;;;;5057284;28;20301;-92
2022/09/20 02:12:05;;;;;;;8.57;2.87;;;14.10;62.00;;;;;;5056042;28;20270;-91
2022/09/20 02:14:50;;;;;;;7.10;2.37;;;14.10;62.00;;;;;;5059535;28;20229;-92
2022/09/20 02:17:28;;;;;;;6.43;2.33;;;14.20;61.90;;;;;;5040017;28;20199;-92
2022/09/20 02:20:13;;;;;;;9.80;3.00;;;14.10;61.60;;;;;;5041296;28;20357;-93
2022/09/20 02:23:12;;;;;;;8.53;2.80;;;14.10;61.90;;;;;;5043916;28;20577;-93
2022/09/20 02:25:56;;;;;;;5.00;1.97;;;14.10;62.40;;;;;;5056560;28;20207;-93
2022/09/20 02:28:41;;;;;;;6.43;2.17;;;14.10;62.00;;;;;;5056353;28;20211;-92
2022/09/20 02:31:31;;;;;;;8.47;3.10;;;14.10;62.00;;;;;;5059864;28;20208;-92
2022/09/20 02:34:25;;;;;;;7.80;2.47;;;14.10;62.10;;;;;;5059997;28;20221;-93
2022/09/20 02:37:06;;;;;;;5.70;2.47;;;14.10;62.20;;;;;;5064980;28;20205;-92
2022/09/20 02:39:38;;;;;;;3.77;1.80;;;14.10;62.00;;;;;;5062068;28;20206;-91
2022/09/20 02:42:13;;;;;;;6.33;2.77;;;14.10;61.70;;;;;;5058862;28;20568;-92
2022/09/20 02:45:08;;;;;;;6.27;2.63;;;14.10;62.00;;;;;;5059365;28;20225;-93
2022/09/20 02:47:41;;;;;;;6.60;2.47;;;14.00;62.20;;;;;;5046477;28;20230;-93
2022/09/20 02:50:23;;;;;;;7.57;2.80;;;14.00;61.80;;;;;;5042787;28;20212;-93
2022/09/20 02:53:07;;;;;;;3.83;2.00;;;14.00;62.10;;;;;;5058505;28;20407;-94
2022/09/20 02:55:47;;;;;;;4.90;1.97;;;14.00;62.30;;;;;;5057918;28;20218;-91
2022/09/20 02:58:31;;;;;;;6.70;2.83;;;14.00;62.40;;;;;;5057492;28;20619;-90
2022/09/20 03:01:05;;;;;;;10.07;3.43;;;14.00;62.40;;;;;;5054040;28;20302;-91
2022/09/20 03:03:47;;;;;;;6.27;2.67;;;13.90;62.30;;;;;;5056856;28;20206;-90
2022/09/20 03:06:27;;;;;;;4.93;2.20;;;14.00;62.70;;;;;;5064824;28;20219;-91
2022/09/20 03:09:04;;;;;;;6.07;2.30;;;13.90;62.40;;;;;;5077168;28;20222;-91
2022/09/20 03:11:44;;;;;;;8.87;3.27;;;13.90;62.40;;;;;;5046567;28;20232;-92
2022/09/20 03:14:21;;;;;;;6.57;2.30;;;13.80;62.40;;;;;;5035611;28;20250;-91
2022/09/20 03:17:02;;;;;;;10.00;3.43;;;13.90;62.40;;;;;;5055941;28;20895;-93
2022/09/20 03:19:50;;;;;;;7.70;3.10;;;13.90;62.50;;;;;;5044513;28;20647;-91
2022/09/20 03:22:31;;;;;;;8.17;2.93;;;13.90;62.90;;;;;;5054803;28;20211;-91
2022/09/20 03:25:36;;;;;;;7.67;2.90;;;13.80;62.40;;;;;;5056728;28;20287;-92
2022/09/20 03:28:34;;;;;;;10.57;3.00;;;13.80;62.40;;;;;;5057123;28;20209;-91
2022/09/20 03:31:15;;;;;;;8.00;2.67;;;13.80;62.40;;;;;;5058057;28;20212;-93
2022/09/20 03:33:56;;;;;;;5.73;2.23;;;13.80;62.10;;;;;;5058468;28;20202;-92
2022/09/20 03:36:53;;;;;;;8.60;2.90;;;13.70;62.20;;;;;;5057765;28;20902;-93
2022/09/20 03:39:42;;;;;;;8.60;3.23;;;13.70;62.50;;;;;;5055050;28;20202;-92
2022/09/20 03:42:16;;;;;;;10.37;3.33;;;13.70;62.50;;;;;;5042418;28;20210;-91
2022/09/20 03:45:21;;;;;;;11.13;3.47;;;13.70;62.40;;;;;;5039039;28;20198;-92
2022/09/20 03:48:10;;;;;;;5.53;2.30;;;13.70;63.00;;;;;;5048310;28;20207;-93
2022/09/20 03:50:58;;;;;;;8.80;3.17;;;13.60;62.70;;;;;;5064844;28;20208;-93
2022/09/20 03:53:51;;;;;;;9.70;2.90;;;13.60;62.90;;;;;;5066370;28;20199;-92
2022/09/20 03:56:55;;;;;;;7.57;2.43;;;13.60;62.90;;;;;;5045117;28;20204;-93
2022/09/20 03:59:41;;;;;;;9.37;2.87;;;13.60;62.90;;;;;;5058753;28;20201;-93
2022/09/20 04:02:29;;;;;;;6.80;2.23;;;13.50;62.70;;;;;;5064593;28;20225;-92
2022/09/20 04:05:01;;;;;;;9.37;3.07;;;13.50;62.90;;;;;;5056346;28;20242;-92
2022/09/20 04:07:40;;;;;;;5.60;2.20;;;13.50;62.80;;;;;;5064706;28;20234;-92
2022/09/20 04:10:29;;;;;;;10.53;3.00;;;13.50;62.90;;;;;;5069893;28;20192;-94
2022/09/20 04:13:14;;;;;;;6.73;2.43;;;13.50;63.30;;;;;;5066117;28;20260;-93
2022/09/20 04:15:57;;;;;;;7.60;2.67;;;13.50;63.10;;;;;;5060333;28;20287;-90
2022/09/20 04:18:33;;;;;;;9.63;3.37;;;13.50;63.10;;;;;;5058210;28;20198;-92
2022/09/20 04:21:28;;;;;;;6.97;2.40;;;13.40;63.00;;;;;;5063874;28;20225;-91
2022/09/20 04:24:09;;;;;;;10.43;3.43;;;13.40;63.30;;;;;;5070667;28;20481;-93
2022/09/20 04:26:49;;;;;;;8.80;2.83;;;13.40;63.30;;;;;;5064032;28;20206;-92
2022/09/20 04:29:30;;;;;;;7.30;2.83;;;13.30;63.40;;;;;;5059947;28;20805;-93
2022/09/20 04:32:15;;;;;;;4.63;2.13;;;13.30;63.60;;;;;;5050521;28;20194;-96
2022/09/20 04:37:33;;;;;;;9.47;3.03;;;13.30;63.60;;;;;;5073002;28;20176;-93
2022/09/20 04:40:21;;;;;;;8.17;2.93;;;13.30;63.50;;;;;;5071006;28;20205;-94
2022/09/20 04:43:17;;;;;;;9.20;2.97;;;13.30;64.20;;;;;;5063130;28;20216;-93
2022/09/20 04:46:10;;;;;;;7.57;2.80;;;13.30;64.20;;;;;;5060459;28;20193;-94
2022/09/20 04:49:12;;;;;;;4.87;2.13;;;13.30;64.20;;;;;;5061389;28;20228;-94
2022/09/20 04:52:14;;;;;;;9.77;3.30;;;13.30;64.30;;;;;;5064174;28;20206;-93
2022/09/20 04:55:28;;;;;;;9.23;2.87;;;13.20;64.10;;;;;;5042068;28;20254;-96
2022/09/20 04:58:42;;;;;;;7.53;2.83;;;13.20;64.10;;;;;;5062819;28;20212;-96
2022/09/20 05:01:48;;;;;;;15.03;4.47;;;13.20;64.40;;;;;;5069779;28;20213;-93
2022/09/20 05:04:58;;;;;;;11.43;3.73;;;13.20;64.10;;;;;;5051385;28;20212;-94
2022/09/20 05:08:07;;;;;;;7.93;2.90;;;13.20;64.30;;;;;;5057727;28;20247;-93
2022/09/20 05:11:13;;;;;;;7.50;2.63;;;13.20;64.10;;;;;;5067407;28;20204;-95
2022/09/20 05:14:03;;;;;;;4.43;2.40;;;13.20;64.20;;;;;;5064827;28;20205;-93
2022/09/20 05:16:49;;;;;;;8.47;2.47;;;13.20;64.50;;;;;;5065842;28;20227;-95
2022/09/20 05:19:45;;;;;;;9.73;3.37;;;13.20;64.10;;;;;;5066451;28;20212;-95
2022/09/20 05:22:30;;;;;;;8.97;3.33;;;13.10;64.30;;;;;;5066437;28;20219;-94
2022/09/20 05:25:28;;;;;;;8.33;3.03;;;13.20;64.10;;;;;;5061986;28;20308;-93
2022/09/20 05:28:10;;;;;;;9.80;3.43;;;13.10;64.50;;;;;;5027940;28;20200;-95
2022/09/20 05:33:34;;;;;;;11.20;3.33;;;13.10;64.00;;;;;;5047477;28;20200;-95
2022/09/20 05:36:23;;;;;;;8.83;3.27;;;13.10;64.00;;;;;;5064203;28;20224;-96
2022/09/20 05:38:58;;;;;;;4.50;2.20;;;13.10;64.00;;;;;;5063138;28;20193;-94
2022/09/20 05:41:45;;;;;;;7.33;2.77;;;13.00;63.80;;;;;;5068357;28;20220;-95
2022/09/20 05:44:31;;;;;;;5.43;2.57;;;13.00;64.30;;;;;;5067349;28;20214;-94
2022/09/20 05:50:20;;;;;;;10.27;3.47;;;13.00;64.50;;;;;;5073150;28;20204;-95
2022/09/20 05:56:31;;;;;;;7.80;3.23;;;12.90;64.40;;;;;;5060910;28;20228;-95
2022/09/20 05:59:32;;;;;;;11.03;3.50;;;12.90;63.90;;;;;;5058737;28;20268;-95
2022/09/20 06:02:19;;;;;;;9.43;3.20;;;12.90;64.70;;;;;;5049380;28;20246;-93
2022/09/20 06:04:57;;;;;;;7.70;3.03;;;12.90;64.50;;;;;;5056724;28;20747;-94
2022/09/20 06:07:38;;;;;;;16.80;5.50;;;12.80;64.50;;;;;;5056003;28;20280;-93
2022/09/20 06:10:38;;;;;;;9.60;3.67;;;12.80;64.60;;;;;;5057074;28;20200;-94
2022/09/20 06:13:22;;;;;;;12.20;4.43;;;12.80;65.10;;;;;;5053604;28;20205;-94
2022/09/20 06:15:57;;;;;;;9.90;4.03;;;12.80;65.00;;;;;;5050949;28;20700;-93
2022/09/20 06:18:33;;;;;;;8.63;3.37;;;12.80;65.00;;;;;;5047373;28;20213;-93
2022/09/20 06:21:31;;;;;;;24.47;7.03;;;12.80;65.50;;;;;;5057696;28;20213;-93
2022/09/20 06:24:02;;;;;;;13.40;3.73;;;12.80;66.10;;;;;;5054179;28;20225;-92
2022/09/20 06:26:34;;;;;;;17.43;5.40;;;12.90;65.90;;;;;;5058127;28;20211;-93
2022/09/20 06:29:11;;;;;;;19.83;5.40;;;12.90;66.10;;;;;;5057997;28;20221;-93
2022/09/20 06:31:44;;;;;;;10.13;3.83;;;12.80;66.20;;;;;;5057379;28;20205;-93
2022/09/20 06:34:17;;;;;;;12.40;4.20;;;12.90;66.50;;;;;;5052315;28;20233;-94
2022/09/20 06:42:41;;;;;;;13.73;4.43;;;13.00;67.00;;;;;;5049260;28;20200;-91
2022/09/20 06:45:08;;;;;;;8.17;4.33;;;13.00;66.70;;;;;;5049546;28;20201;-93
2022/09/20 06:47:39;;;;;;;7.60;3.53;;;13.00;67.00;;;;;;5053957;28;20278;-92
2022/09/20 06:50:07;;;;;;;6.17;3.40;;;13.00;67.50;;;;;;5057762;28;20726;-92
2022/09/20 06:52:34;;;;;;;16.57;5.63;;;13.10;67.20;;;;;;5072016;28;20246;-89
2022/09/20 06:55:07;;;;;;;6.30;3.17;;;13.10;67.10;;;;;;5061169;28;20220;-92
2022/09/20 06:57:37;;;;;;;7.87;3.60;;;13.20;67.40;;;;;;5050943;28;20193;-92
2022/09/20 07:00:09;;;;;;;14.30;5.43;;;13.20;67.70;;;;;;5053149;28;20208;-92
2022/09/20 07:02:37;;;;;;;10.60;3.93;;;13.20;67.70;;;;;;5055602;28;20292;-92
2022/09/20 07:05:10;;;;;;;10.90;4.53;;;13.30;67.60;;;;;;5046088;28;20240;-92
2022/09/20 07:07:37;;;;;;;17.83;6.07;;;13.30;67.80;;;;;;5055122;28;20224;-93
2022/09/20 07:10:05;;;;;;;13.93;5.43;;;13.40;67.90;;;;;;5045191;28;20238;-91
2022/09/20 07:12:33;;;;;;;14.57;5.77;;;13.50;68.20;;;;;;5073213;28;20189;-91
2022/09/20 07:15:03;;;;;;;5.73;3.60;;;13.50;68.30;;;;;;5060044;28;20222;-93
2022/09/20 07:17:49;;;;;;;16.90;5.23;;;13.50;69.00;;;;;;5053430;28;20276;-92
2022/09/20 07:20:20;;;;;;;9.17;3.50;;;13.60;70.10;;;;;;5054579;28;20199;-92
2022/09/20 07:22:48;;;;;;;11.73;4.43;;;13.70;69.80;;;;;;5055536;28;20298;-92
2022/09/20 07:25:17;;;;;;;11.17;4.03;;;13.80;69.70;;;;;;5051890;28;20587;-92
2022/09/20 07:27:46;;;;;;;9.93;4.27;;;13.90;70.20;;;;;;5050257;28;20327;-93
2022/09/20 07:30:15;;;;;;;11.03;4.23;;;13.90;70.00;;;;;;5051471;28;20624;-92
2022/09/20 07:32:44;;;;;;;9.70;3.30;;;14.00;70.30;;;;;;5048596;28;20737;-92
2022/09/20 07:35:14;;;;;;;6.43;2.87;;;14.20;71.00;;;;;;5037640;28;20235;-94
2022/09/20 07:37:43;;;;;;;11.00;3.60;;;14.20;70.30;;;;;;5053396;28;20218;-94
2022/09/20 07:40:13;;;;;;;9.37;3.20;;;14.30;70.40;;;;;;5056571;28;20211;-91
2022/09/20 07:42:44;;;;;;;8.37;3.03;;;14.40;70.40;;;;;;5054804;28;20254;-92
2022/09/20 07:45:12;;;;;;;17.77;6.10;;;14.50;70.70;;;;;;5054933;28;20261;-92
2022/09/20 07:47:40;;;;;;;10.93;4.07;;;14.60;70.50;;;;;;5059547;28;20205;-91
2022/09/20 07:50:13;;;;;;;8.10;3.80;;;14.70;70.80;;;;;;5056946;28;20212;-92
2022/09/20 07:52:42;;;;;;;11.03;3.97;;;14.80;71.30;;;;;;5054279;28;20715;-91
2022/09/20 07:55:10;;;;;;;9.07;3.40;;;14.90;70.80;;;;;;5055532;28;20220;-92
2022/09/20 07:57:38;;;;;;;8.00;3.37;;;15.00;70.60;;;;;;5054634;28;20203;-91
2022/09/20 08:00:09;;;;;;;8.77;3.47;;;15.10;70.80;;;;;;5051175;28;20204;-91
2022/09/20 08:02:36;;;;;;;9.10;3.23;;;15.20;71.10;;;;;;5055928;28;20204;-93
2022/09/20 08:05:04;;;;;;;9.93;3.77;;;15.40;70.90;;;;;;5047794;28;20206;-92
2022/09/20 08:07:35;;;;;;;15.67;4.50;;;15.50;71.00;;;;;;5050881;28;20239;-91
2022/09/20 08:10:05;;;;;;;8.60;3.33;;;15.60;71.40;;;;;;5052227;28;20623;-92
2022/09/20 08:12:33;;;;;;;7.97;3.37;;;15.70;71.50;;;;;;5055268;28;20297;-92
2022/09/20 08:15:04;;;;;;;14.57;3.93;;;15.80;71.50;;;;;;5062997;28;20204;-95
2022/09/20 08:17:36;;;;;;;15.70;4.77;;;15.90;71.60;;;;;;5055949;28;20208;-94
2022/09/20 08:20:05;;;;;;;9.57;2.87;;;16.10;71.60;;;;;;5063576;28;20303;-96
2022/09/20 08:22:37;;;;;;;5.97;1.60;;;16.20;71.00;;;;;;5052675;28;20203;-92
2022/09/20 08:25:07;;;;;;;8.97;2.63;;;16.40;70.30;;;;;;5055207;28;20214;-93
2022/09/20 08:28:14;;;;;;;5.63;1.90;;;16.60;69.60;;;;;;5063971;28;20228;-94
2022/09/20 08:30:52;;;;;;;5.77;1.90;;;16.80;69.40;;;;;;5048118;28;20205;-92
2022/09/20 08:33:19;;;;;;;6.13;2.43;;;16.90;68.50;;;;;;5059073;28;20209;-92
2022/09/20 08:35:49;;;;;;;12.27;2.90;;;17.00;68.20;;;;;;5059335;28;20796;-93
2022/09/20 08:38:18;;;;;;;8.43;2.40;;;17.20;67.70;;;;;;5063132;28;20209;-93
2022/09/20 08:40:48;;;;;;;9.53;2.10;;;17.30;67.60;;;;;;5052139;28;20230;-93
2022/09/20 08:43:16;;;;;;;6.63;2.60;;;17.40;67.50;;;;;;5051556;28;20194;-90
2022/09/20 08:45:45;;;;;;;7.33;2.63;;;17.50;67.10;;;;;;5055160;28;20206;-92
2022/09/20 08:48:16;;;;;;;6.37;1.70;;;17.50;66.80;;;;;;5044778;28;20583;-91
2022/09/20 08:50:51;;;;;;;7.73;2.53;;;17.60;66.20;;;;;;5054365;28;20262;-91
2022/09/20 08:53:19;;;;;;;7.60;2.20;;;17.60;66.10;;;;;;5054327;28;20546;-92
2022/09/20 08:55:48;;;;;;;14.57;3.50;;;17.70;66.10;;;;;;5051927;28;20711;-90
2022/09/20 08:58:18;;;;;;;10.73;2.53;;;17.70;66.10;;;;;;5051933;28;20228;-92
2022/09/20 09:00:46;;;;;;;5.63;2.17;;;17.80;66.00;;;;;;5050704;28;20555;-92
2022/09/20 09:03:17;;;;;;;10.87;2.87;;;17.80;65.70;;;;;;5048998;28;20265;-90
2022/09/20 09:05:46;;;;;;;6.87;2.33;;;17.80;65.50;;;;;;5049053;28;20258;-88
2022/09/20 09:08:17;;;;;;;7.07;2.17;;;17.90;65.50;;;;;;5050687;28;20291;-89
2022/09/20 09:10:52;;;;;;;9.50;2.37;;;17.90;65.40;;;;;;5052487;28;20235;-91
2022/09/20 09:13:26;;;;;;;10.83;3.67;;;17.90;65.40;;;;;;5051535;28;20209;-91
2022/09/20 09:16:02;;;;;;;10.50;2.93;;;17.90;65.40;;;;;;5051402;28;20210;-94
2022/09/20 09:18:35;;;;;;;10.70;2.73;;;18.00;65.50;;;;;;5049247;28;20192;-92
2022/09/20 09:21:09;;;;;;;9.70;2.83;;;18.00;65.80;;;;;;5051790;28;20203;-90
2022/09/20 09:23:42;;;;;;;6.83;2.13;;;18.10;66.20;;;;;;5053844;28;20942;-92
2022/09/20 09:26:19;;;;;;;10.87;3.17;;;18.10;66.30;;;;;;5048667;28;20222;-93
2022/09/20 09:29:16;;;;;;;4.87;1.47;;;18.10;65.90;;;;;;5053685;28;20204;-92
2022/09/20 09:31:45;;;;;;;5.80;1.80;;;18.20;65.70;;;;;;5071886;22;20233;-91
2022/09/20 09:34:25;;;;;;;8.57;2.53;;;18.30;65.00;;;;;;5069996;28;20209;-91
2022/09/20 09:36:54;;;;;;;7.87;2.43;;;18.40;64.70;;;;;;5074147;28;20229;-92
2022/09/20 09:39:25;;;;;;;8.90;2.57;;;18.40;64.40;;;;;;5089338;28;20190;-93
2022/09/20 09:41:54;;;;;;;8.93;2.73;;;18.40;64.00;;;;;;5081209;28;20226;-92
2022/09/20 09:44:26;;;;;;;2.30;1.13;;;18.50;64.10;;;;;;5075707;28;20285;-91
2022/09/20 09:46:56;;;;;;;4.93;1.87;;;18.60;63.60;;;;;;5074952;28;20199;-91
2022/09/20 09:49:26;;;;;;;4.10;1.60;;;18.70;63.60;;;;;;5073859;28;20282;-91
2022/09/20 09:52:05;;;;;;;7.27;2.40;;;18.70;63.10;;;;;;5066942;28;20211;-91
2022/09/20 09:54:36;;;;;;;4.43;1.30;;;18.80;63.10;;;;;;5062871;28;20295;-90
2022/09/20 09:57:40;;;;;;;8.57;2.57;;;18.80;63.50;;;;;;5072819;28;20343;-91
2022/09/20 10:00:12;;;;;;;7.57;2.17;;;19.00;64.70;;;;;;5064846;28;20203;-88
2022/09/20 10:03:17;;;;;;;7.17;2.20;;;19.10;64.70;;;;;;5079865;28;20211;-93
2022/09/20 10:05:56;;;;;;;11.03;2.73;;;19.20;64.30;;;;;;5072920;28;20222;-94
2022/09/20 10:08:37;;;;;;;7.73;2.30;;;19.50;64.20;;;;;;5060116;28;20648;-92
2022/09/20 10:11:14;;;;;;;4.73;1.73;;;19.60;63.50;;;;;;5069482;28;20645;-91
2022/09/20 10:13:54;;;;;;;3.00;1.13;;;19.80;63.10;;;;;;5060071;28;20263;-93
2022/09/20 10:16:40;;;;;;;4.80;1.93;;;19.90;61.80;;;;;;5076009;28;20761;-94
2022/09/20 10:19:23;;;;;;;3.17;1.20;;;20.00;61.70;;;;;;5074474;28;20231;-94
2022/09/20 10:22:00;;;;;;;3.77;0.97;;;20.10;61.00;;;;;;5076775;28;20211;-94
2022/09/20 10:27:38;;;;;;;3.70;1.30;;;20.30;61.30;;;;;;5034401;28;20250;-92
2022/09/20 10:30:11;;;;;;;5.30;1.83;;;20.40;61.30;;;;;;5079697;28;20230;-94
2022/09/20 10:33:00;;;;;;;3.50;1.37;;;20.60;61.00;;;;;;5078133;28;20220;-94
2022/09/20 10:35:39;;;;;;;4.73;1.40;;;20.70;60.40;;;;;;5076692;28;20208;-95
2022/09/20 10:38:14;;;;;;;4.20;1.60;;;20.80;60.20;;;;;;5076175;28;20647;-93
2022/09/20 10:44:45;;;;;;;9.20;3.37;;;21.20;59.30;;;;;;4985615;28;20215;-95
2022/09/20 10:47:39;;;;;;;6.97;3.00;;;21.40;58.60;;;;;;5073921;28;20286;-96
2022/09/20 10:50:33;;;;;;;8.03;2.70;;;21.60;58.90;;;;;;5078838;28;20582;-94
2022/09/20 10:53:28;;;;;;;4.97;1.67;;;21.80;59.30;;;;;;5071540;28;20199;-92
2022/09/20 10:56:14;;;;;;;9.90;3.40;;;22.10;58.80;;;;;;5067181;28;20211;-95
2022/09/20 10:59:41;;;;;;;6.93;2.87;;;22.30;58.40;;;;;;5071153;28;20204;-95
2022/09/20 11:02:32;;;;;;;4.27;1.47;;;22.50;57.30;;;;;;5077523;28;20781;-95
2022/09/20 11:05:23;;;;;;;5.87;2.23;;;22.70;57.20;;;;;;5071687;28;20572;-93
2022/09/20 11:08:07;;;;;;;4.70;1.73;;;22.90;56.80;;;;;;5057004;28;20210;-95
2022/09/20 11:10:51;;;;;;;12.83;3.30;;;23.10;56.70;;;;;;5070516;28;20290;-93
2022/09/20 11:13:28;;;;;;;6.20;2.30;;;23.20;56.50;;;;;;5082179;28;20207;-94
2022/09/20 11:16:12;;;;;;;9.27;2.90;;;23.30;56.10;;;;;;5083256;28;20211;-94
2022/09/20 11:18:47;;;;;;;6.87;2.37;;;23.40;55.60;;;;;;5075098;28;20221;-92
2022/09/20 11:21:21;;;;;;;5.60;2.23;;;23.50;56.20;;;;;;5080602;28;20260;-93
2022/09/20 11:24:08;;;;;;;5.20;2.07;;;23.50;56.00;;;;;;5078752;28;20203;-93
2022/09/20 11:29:34;;;;;;;3.37;1.37;;;23.60;55.60;;;;;;5082427;28;20253;-93
2022/09/20 11:32:10;;;;;;;10.17;1.63;;;23.70;55.40;;;;;;5083329;28;20213;-96
2022/09/20 11:34:49;;;;;;;3.47;1.40;;;23.80;55.30;;;;;;5073916;28;20230;-93
2022/09/20 11:37:23;;;;;;;3.83;1.47;;;23.90;54.30;;;;;;5068062;28;20251;-94
2022/09/20 11:40:15;;;;;;;9.80;3.07;;;24.00;54.70;;;;;;5065641;28;20203;-96
2022/09/20 11:42:45;;;;;;;3.40;1.10;;;24.10;54.30;;;;;;5080356;28;20203;-94
2022/09/20 11:45:13;;;;;;;6.10;1.90;;;24.10;54.50;;;;;;5082342;28;20196;-95
2022/09/20 11:47:43;;;;;;;5.83;2.40;;;24.10;54.50;;;;;;5081702;28;20207;-95
2022/09/20 11:51:03;;;;;;;4.10;1.57;;;24.10;54.00;;;;;;5079983;28;20203;-92
2022/09/20 11:56:55;;;;;;;6.70;2.30;;;24.00;52.90;;;;;;5059909;28;20660;-92
2022/09/20 11:59:48;;;;;;;3.67;1.77;;;23.90;53.60;;;;;;5079248;28;20203;-92
2022/09/20 12:02:22;;;;;;;4.83;1.57;;;23.80;53.90;;;;;;5075919;28;20221;-95
2022/09/20 12:04:53;;;;;;;5.73;1.70;;;23.60;54.10;;;;;;5080313;28;20238;-95
2022/09/20 12:07:40;;;;;;;4.73;1.67;;;23.50;54.50;;;;;;5082199;28;20203;-95
2022/09/20 12:10:22;;;;;;;9.40;3.73;;;23.30;54.60;;;;;;5084021;28;20211;-95
2022/09/20 12:12:58;;;;;;;7.70;2.50;;;23.20;55.10;;;;;;5088274;28;20199;-92
2022/09/20 12:15:29;;;;;;;8.00;3.30;;;23.10;55.20;;;;;;5078601;28;20203;-94
2022/09/20 12:18:36;;;;;;;9.90;1.70;;;23.00;55.30;;;;;;5073302;28;20212;-93
2022/09/20 12:21:17;;;;;;;4.53;1.43;;;22.90;56.00;;;;;;5079655;28;20223;-94
2022/09/20 12:24:09;;;;;;;4.83;1.93;;;22.80;56.80;;;;;;5070876;28;21001;-94
2022/09/20 12:26:55;;;;;;;9.33;3.17;;;22.70;56.90;;;;;;5075592;28;20230;-94
2022/09/20 12:32:56;;;;;;;3.40;1.43;;;22.40;57.60;;;;;;5053232;28;20217;-96
2022/09/20 12:35:58;;;;;;;6.50;2.33;;;22.30;57.50;;;;;;5074320;28;20289;-94
2022/09/20 12:39:09;;;;;;;37.23;14.10;;;22.20;57.90;;;;;;5100522;22;20719;-93
2022/09/20 12:45:06;;;;;;;5.70;1.70;;;22.10;57.30;;;;;;5109869;28;20200;-94
2022/09/20 12:48:18;;;;;;;12.87;4.33;;;22.00;57.60;;;;;;5104663;27;20193;-95
2022/09/20 12:54:04;;;;;;;7.67;2.80;;;21.90;57.30;;;;;;5090421;28;20717;-94
2022/09/20 12:56:35;;;;;;;6.50;1.67;;;21.90;57.20;;;;;;5073539;28;20203;-96
2022/09/20 13:02:57;;;;;;;3.33;1.27;;;21.80;57.20;;;;;;5088059;28;20209;-95
2022/09/20 13:06:11;;;;;;;3.83;1.53;;;21.90;58.00;;;;;;5097888;28;20242;-95
2022/09/20 13:08:46;;;;;;;4.03;1.40;;;22.00;58.30;;;;;;5096275;28;20219;-94
2022/09/20 13:11:55;;;;;;;9.27;3.43;;;22.00;57.80;;;;;;5098174;28;20199;-95
2022/09/20 13:14:25;;;;;;;2.93;1.20;;;22.30;57.50;;;;;;5102158;28;20285;-95
2022/09/20 13:17:55;;;;;;;4.83;1.87;;;22.50;57.70;;;;;;5103602;28;20226;-95
2022/09/20 13:20:44;;;;;;;7.70;2.77;;;22.80;57.40;;;;;;5103119;28;20203;-95
2022/09/20 13:23:23;;;;;;;6.53;1.53;;;23.10;57.50;;;;;;5095665;28;20242;-94
2022/09/20 13:25:52;;;;;;;3.10;1.27;;;23.40;57.10;;;;;;5081916;28;20220;-93
2022/09/20 13:28:31;;;;;;;13.53;4.93;;;23.60;56.60;;;;;;5091874;28;20301;-93
2022/09/20 13:31:36;;;;;;;8.07;3.40;;;23.90;55.80;;;;;;5088054;28;20202;-94
2022/09/20 13:34:20;;;;;;;7.37;2.60;;;24.20;55.40;;;;;;5052258;28;20250;-95
2022/09/20 13:37:08;;;;;;;5.07;2.00;;;24.40;55.10;;;;;;5054012;28;20227;-93
2022/09/20 13:42:22;;;;;;;3.87;1.53;;;24.80;55.00;;;;;;5093470;28;20229;-94
2022/09/20 13:45:35;;;;;;;8.07;3.33;;;25.10;54.60;;;;;;5093750;28;20202;-93
2022/09/20 13:48:02;;;;;;;5.73;2.00;;;25.30;54.00;;;;;;5081875;28;20292;-92
2022/09/20 13:50:33;;;;;;;4.30;1.70;;;25.50;53.90;;;;;;5076462;28;20616;-95
2022/09/20 13:53:14;;;;;;;5.30;1.83;;;25.60;53.20;;;;;;5090640;28;20218;-93
2022/09/20 13:55:43;;;;;;;3.53;1.40;;;25.70;53.10;;;;;;5073718;28;20196;-94
2022/09/20 13:58:20;;;;;;;3.10;1.47;;;25.70;52.90;;;;;;5079614;28;20287;-95
2022/09/20 14:00:51;;;;;;;6.77;1.83;;;25.70;52.10;;;;;;5097775;28;20198;-94
2022/09/20 14:03:22;;;;;;;6.37;2.50;;;25.70;52.00;;;;;;5096581;28;20203;-95
2022/09/20 14:05:53;;;;;;;5.40;1.57;;;25.80;51.80;;;;;;5085417;28;20214;-94
2022/09/20 14:08:27;;;;;;;3.60;1.60;;;25.70;51.50;;;;;;5093203;28;20203;-95
2022/09/20 14:11:06;;;;;;;6.63;1.90;;;25.70;51.20;;;;;;5088183;28;20263;-94
2022/09/20 14:13:41;;;;;;;7.63;1.93;;;25.60;50.70;;;;;;5079345;28;20294;-94
2022/09/20 14:16:12;;;;;;;7.03;2.27;;;25.50;50.90;;;;;;5079009;28;20232;-94
2022/09/20 14:18:40;;;;;;;5.27;1.60;;;25.40;50.90;;;;;;5084864;28;20268;-95
2022/09/20 14:21:17;;;;;;;4.13;1.60;;;25.30;51.20;;;;;;5094246;28;20586;-94
2022/09/20 14:23:51;;;;;;;4.60;1.80;;;25.20;51.30;;;;;;5098896;28;20202;-95
2022/09/20 14:26:26;;;;;;;6.83;2.63;;;25.10;51.30;;;;;;5096068;28;20252;-94
2022/09/20 14:28:55;;;;;;;3.80;1.50;;;25.00;51.10;;;;;;5101029;28;20202;-95
2022/09/20 14:31:33;;;;;;;4.13;1.43;;;24.90;51.80;;;;;;5099700;28;20198;-95
2022/09/20 14:34:04;;;;;;;6.70;2.27;;;24.90;51.80;;;;;;5098082;28;20218;-92
2022/09/20 14:36:34;;;;;;;5.17;1.87;;;24.80;51.70;;;;;;5100209;28;20219;-94
2022/09/20 14:39:04;;;;;;;9.80;3.20;;;24.80;51.70;;;;;;5094281;28;20245;-95
2022/09/20 14:41:39;;;;;;;3.00;1.10;;;24.70;51.60;;;;;;5102547;28;20206;-95
2022/09/20 14:44:17;;;;;;;6.77;2.73;;;24.70;51.60;;;;;;5101031;28;20195;-95
2022/09/20 14:46:57;;;;;;;5.50;2.10;;;24.60;51.70;;;;;;5100843;28;20224;-94